sensor_id;sensor_type;location;lat;lon;timestamp;pressure;altitude;pressure_sealevel;temperature;humidity
70909;BME280;58554;52.006;5.926;2023-04-25T00:00:59;100164.41;;;9.77;65.59
70909;BME280;58554;52.006;5.926;2023-04-25T00:03:28;100156.56;;;9.76;65.44
70909;BME280;58554;52.006;5.926;2023-04-25T00:05:55;100153.34;;;9.70;65.59
70909;BME280;58554;52.006;5.926;2023-04-25T00:08:21;100152.50;;;9.70;65.61
70909;BME280;58554;52.006;5.926;2023-04-25T00:10:48;100154.50;;;9.66;65.34
70909;BME280;58554;52.006;5.926;2023-04-25T00:13:15;100166.09;;;9.64;65.37
70909;BME280;58554;52.006;5.926;2023-04-25T00:15:41;100163.53;;;9.62;65.50
70909;BME280;58554;52.006;5.926;2023-04-25T00:18:08;100168.94;;;9.61;65.24
70909;BME280;58554;52.006;5.926;2023-04-25T00:20:37;100175.25;;;9.58;65.26
70909;BME280;58554;52.006;5.926;2023-04-25T00:23:05;100180.91;;;9.52;65.18
70909;BME280;58554;52.006;5.926;2023-04-25T00:25:31;100176.78;;;9.48;65.14
70909;BME280;58554;52.006;5.926;2023-04-25T00:27:58;100186.47;;;9.47;65.35
70909;BME280;58554;52.006;5.926;2023-04-25T00:30:24;100182.25;;;9.45;65.25
70909;BME280;58554;52.006;5.926;2023-04-25T00:32:51;100177.91;;;9.44;65.24
70909;BME280;58554;52.006;5.926;2023-04-25T00:35:17;100174.53;;;9.42;65.39
70909;BME280;58554;52.006;5.926;2023-04-25T00:37:47;100184.31;;;9.40;65.12
70909;BME280;58554;52.006;5.926;2023-04-25T00:40:13;100180.81;;;9.39;65.18
70909;BME280;58554;52.006;5.926;2023-04-25T00:42:40;100182.53;;;9.40;65.29
70909;BME280;58554;52.006;5.926;2023-04-25T00:45:11;100182.53;;;9.40;65.31
70909;BME280;58554;52.006;5.926;2023-04-25T00:47:40;100186.75;;;9.43;65.17
70909;BME280;58554;52.006;5.926;2023-04-25T00:50:08;100189.50;;;9.41;64.96
70909;BME280;58554;52.006;5.926;2023-04-25T00:52:36;100194.88;;;9.40;65.02
70909;BME280;58554;52.006;5.926;2023-04-25T00:55:09;100194.00;;;9.39;65.20
70909;BME280;58554;52.006;5.926;2023-04-25T00:57:38;100194.13;;;9.38;65.15
70909;BME280;58554;52.006;5.926;2023-04-25T01:00:10;100195.81;;;9.39;64.96
70909;BME280;58554;52.006;5.926;2023-04-25T01:02:38;100187.91;;;9.39;65.05
70909;BME280;58554;52.006;5.926;2023-04-25T01:05:06;100191.88;;;9.46;65.19
70909;BME280;58554;52.006;5.926;2023-04-25T01:07:33;100194.31;;;9.49;65.08
70909;BME280;58554;52.006;5.926;2023-04-25T01:10:01;100197.59;;;9.52;64.82
70909;BME280;58554;52.006;5.926;2023-04-25T01:12:30;100195.72;;;9.55;64.94
70909;BME280;58554;52.006;5.926;2023-04-25T01:14:58;100195.59;;;9.56;64.76
70909;BME280;58554;52.006;5.926;2023-04-25T01:17:24;100206.06;;;9.58;64.93
70909;BME280;58554;52.006;5.926;2023-04-25T01:19:51;100203.34;;;9.59;64.71
70909;BME280;58554;52.006;5.926;2023-04-25T01:22:20;100208.53;;;9.61;64.70
70909;BME280;58554;52.006;5.926;2023-04-25T01:24:47;100204.09;;;9.61;64.72
70909;BME280;58554;52.006;5.926;2023-04-25T01:27:13;100202.50;;;9.59;64.88
70909;BME280;58554;52.006;5.926;2023-04-25T01:29:41;100206.00;;;9.59;64.79
70909;BME280;58554;52.006;5.926;2023-04-25T01:32:10;100216.53;;;9.59;64.75
70909;BME280;58554;52.006;5.926;2023-04-25T01:34:37;100207.78;;;9.59;64.59
70909;BME280;58554;52.006;5.926;2023-04-25T01:37:03;100209.56;;;9.58;64.69
70909;BME280;58554;52.006;5.926;2023-04-25T01:39:32;100214.84;;;9.58;64.71
70909;BME280;58554;52.006;5.926;2023-04-25T01:41:59;100213.25;;;9.56;64.62
70909;BME280;58554;52.006;5.926;2023-04-25T01:44:26;100201.84;;;9.55;64.71
70909;BME280;58554;52.006;5.926;2023-04-25T01:46:54;100208.03;;;9.54;64.56
70909;BME280;58554;52.006;5.926;2023-04-25T01:49:21;100212.19;;;9.58;64.59
70909;BME280;58554;52.006;5.926;2023-04-25T01:51:48;100212.19;;;9.58;64.32
70909;BME280;58554;52.006;5.926;2023-04-25T01:54:14;100218.34;;;9.59;64.57
70909;BME280;58554;52.006;5.926;2023-04-25T01:56:50;100217.59;;;9.57;64.70
70909;BME280;58554;52.006;5.926;2023-04-25T01:59:19;100229.81;;;9.58;64.42
70909;BME280;58554;52.006;5.926;2023-04-25T02:01:45;100229.00;;;9.57;64.28
70909;BME280;58554;52.006;5.926;2023-04-25T02:04:12;100225.59;;;9.55;64.48
70909;BME280;58554;52.006;5.926;2023-04-25T02:06:38;100230.03;;;9.55;64.48
70909;BME280;58554;52.006;5.926;2023-04-25T02:09:05;100238.78;;;9.55;64.36
70909;BME280;58554;52.006;5.926;2023-04-25T02:11:31;100234.44;;;9.54;64.21
70909;BME280;58554;52.006;5.926;2023-04-25T02:14:00;100231.81;;;9.54;64.16
70909;BME280;58554;52.006;5.926;2023-04-25T02:16:27;100238.25;;;9.50;64.26
70909;BME280;58554;52.006;5.926;2023-04-25T02:18:53;100241.25;;;9.44;64.20
70909;BME280;58554;52.006;5.926;2023-04-25T02:21:20;100238.13;;;9.37;64.22
70909;BME280;58554;52.006;5.926;2023-04-25T02:23:46;100244.63;;;9.31;64.25
70909;BME280;58554;52.006;5.926;2023-04-25T02:26:13;100242.34;;;9.25;64.27
70909;BME280;58554;52.006;5.926;2023-04-25T02:28:39;100248.81;;;9.20;64.54
70909;BME280;58554;52.006;5.926;2023-04-25T02:31:08;100237.59;;;9.16;64.57
70909;BME280;58554;52.006;5.926;2023-04-25T02:33:35;100249.09;;;9.15;64.45
70909;BME280;58554;52.006;5.926;2023-04-25T02:36:02;100247.59;;;9.11;64.61
70909;BME280;58554;52.006;5.926;2023-04-25T02:38:28;100253.03;;;9.08;64.40
70909;BME280;58554;52.006;5.926;2023-04-25T02:40:55;100248.13;;;9.02;64.34
70909;BME280;58554;52.006;5.926;2023-04-25T02:43:21;100242.94;;;9.00;64.43
70909;BME280;58554;52.006;5.926;2023-04-25T02:45:48;100250.19;;;8.97;64.52
70909;BME280;58554;52.006;5.926;2023-04-25T02:48:17;100253.00;;;8.93;64.28
70909;BME280;58554;52.006;5.926;2023-04-25T02:50:44;100255.91;;;8.89;64.35
70909;BME280;58554;52.006;5.926;2023-04-25T02:53:10;100249.09;;;8.85;64.42
70909;BME280;58554;52.006;5.926;2023-04-25T02:55:37;100252.03;;;8.80;64.33
70909;BME280;58554;52.006;5.926;2023-04-25T02:58:03;100246.19;;;8.75;64.46
70909;BME280;58554;52.006;5.926;2023-04-25T03:00:30;100259.34;;;8.75;64.29
70909;BME280;58554;52.006;5.926;2023-04-25T03:02:57;100254.31;;;8.70;64.56
70909;BME280;58554;52.006;5.926;2023-04-25T03:05:26;100253.56;;;8.68;64.56
70909;BME280;58554;52.006;5.926;2023-04-25T03:07:53;100251.03;;;8.67;64.44
70909;BME280;58554;52.006;5.926;2023-04-25T03:10:19;100254.69;;;8.64;64.55
70909;BME280;58554;52.006;5.926;2023-04-25T03:12:46;100254.78;;;8.63;64.42
70909;BME280;58554;52.006;5.926;2023-04-25T03:15:12;100260.16;;;8.61;64.17
70909;BME280;58554;52.006;5.926;2023-04-25T03:17:39;100260.22;;;8.60;64.32
70909;BME280;58554;52.006;5.926;2023-04-25T03:20:07;100260.41;;;8.57;64.49
70909;BME280;58554;52.006;5.926;2023-04-25T03:22:37;100266.59;;;8.56;64.26
70909;BME280;58554;52.006;5.926;2023-04-25T03:25:05;100269.50;;;8.51;64.03
70909;BME280;58554;52.006;5.926;2023-04-25T03:27:33;100277.59;;;8.48;64.23
70909;BME280;58554;52.006;5.926;2023-04-25T03:29:59;100276.91;;;8.44;64.19
70909;BME280;58554;52.006;5.926;2023-04-25T03:32:26;100277.94;;;8.42;64.14
70909;BME280;58554;52.006;5.926;2023-04-25T03:34:52;100270.13;;;8.40;64.07
70909;BME280;58554;52.006;5.926;2023-04-25T03:37:19;100272.84;;;8.39;64.32
70909;BME280;58554;52.006;5.926;2023-04-25T03:39:48;100274.78;;;8.35;64.23
70909;BME280;58554;52.006;5.926;2023-04-25T03:42:14;100273.09;;;8.34;64.51
70909;BME280;58554;52.006;5.926;2023-04-25T03:44:41;100275.88;;;8.31;64.22
70909;BME280;58554;52.006;5.926;2023-04-25T03:47:07;100276.06;;;8.28;64.29
70909;BME280;58554;52.006;5.926;2023-04-25T03:49:34;100278.72;;;8.28;64.34
70909;BME280;58554;52.006;5.926;2023-04-25T03:52:01;100279.63;;;8.27;64.44
70909;BME280;58554;52.006;5.926;2023-04-25T03:54:28;100278.78;;;8.26;64.46
70909;BME280;58554;52.006;5.926;2023-04-25T03:56:57;100279.81;;;8.24;64.47
70909;BME280;58554;52.006;5.926;2023-04-25T03:59:24;100284.25;;;8.23;64.22
70909;BME280;58554;52.006;5.926;2023-04-25T04:01:50;100285.22;;;8.21;64.46
70909;BME280;58554;52.006;5.926;2023-04-25T04:04:16;100284.38;;;8.20;64.34
70909;BME280;58554;52.006;5.926;2023-04-25T04:06:43;100281.69;;;8.22;64.19
70909;BME280;58554;52.006;5.926;2023-04-25T04:09:10;100283.63;;;8.18;64.28
70909;BME280;58554;52.006;5.926;2023-04-25T04:11:36;100285.50;;;8.16;63.97
70909;BME280;58554;52.006;5.926;2023-04-25T04:14:06;100298.66;;;8.16;64.21
70909;BME280;58554;52.006;5.926;2023-04-25T04:16:33;100295.25;;;8.14;64.17
70909;BME280;58554;52.006;5.926;2023-04-25T04:19:00;100289.16;;;8.14;64.45
70909;BME280;58554;52.006;5.926;2023-04-25T04:21:26;100294.50;;;8.12;64.22
70909;BME280;58554;52.006;5.926;2023-04-25T04:23:53;100298.22;;;8.08;64.08
70909;BME280;58554;52.006;5.926;2023-04-25T04:26:19;100306.47;;;8.02;63.97
70909;BME280;58554;52.006;5.926;2023-04-25T04:28:46;100303.38;;;7.94;63.96
70909;BME280;58554;52.006;5.926;2023-04-25T04:31:15;100296.94;;;7.83;63.95
70909;BME280;58554;52.006;5.926;2023-04-25T04:33:42;100303.63;;;7.73;63.84
70909;BME280;58554;52.006;5.926;2023-04-25T04:36:08;100311.16;;;7.63;64.25
70909;BME280;58554;52.006;5.926;2023-04-25T04:38:35;100311.72;;;7.53;64.22
70909;BME280;58554;52.006;5.926;2023-04-25T04:41:01;100309.53;;;7.43;64.20
70909;BME280;58554;52.006;5.926;2023-04-25T04:43:28;100319.66;;;7.34;64.22
70909;BME280;58554;52.006;5.926;2023-04-25T04:45:55;100327.16;;;7.24;64.51
70909;BME280;58554;52.006;5.926;2023-04-25T04:48:24;100331.19;;;7.14;64.36
70909;BME280;58554;52.006;5.926;2023-04-25T04:50:51;100334.28;;;7.04;64.65
70909;BME280;58554;52.006;5.926;2023-04-25T04:53:17;100344.41;;;6.95;64.83
70909;BME280;58554;52.006;5.926;2023-04-25T04:55:44;100356.28;;;6.84;64.90
70909;BME280;58554;52.006;5.926;2023-04-25T04:58:10;100363.06;;;6.71;64.81
70909;BME280;58554;52.006;5.926;2023-04-25T05:00:37;100353.25;;;6.56;64.97
70909;BME280;58554;52.006;5.926;2023-04-25T05:03:03;100357.19;;;6.47;65.33
70909;BME280;58554;52.006;5.926;2023-04-25T05:05:32;100354.91;;;6.39;65.46
70909;BME280;58554;52.006;5.926;2023-04-25T05:07:58;100368.25;;;6.35;65.45
70909;BME280;58554;52.006;5.926;2023-04-25T05:10:25;100365.84;;;6.30;65.77
70909;BME280;58554;52.006;5.926;2023-04-25T05:12:52;100372.22;;;6.24;65.99
70909;BME280;58554;52.006;5.926;2023-04-25T05:15:18;100361.03;;;6.21;66.21
70909;BME280;58554;52.006;5.926;2023-04-25T05:17:45;100372.44;;;6.20;66.00
70909;BME280;58554;52.006;5.926;2023-04-25T05:20:11;100375.06;;;6.20;65.90
70909;BME280;58554;52.006;5.926;2023-04-25T05:22:40;100376.78;;;6.21;66.21
70909;BME280;58554;52.006;5.926;2023-04-25T05:25:08;100379.41;;;6.21;66.45
70909;BME280;58554;52.006;5.926;2023-04-25T05:27:35;100381.09;;;6.22;66.25
70909;BME280;58554;52.006;5.926;2023-04-25T05:30:02;100383.66;;;6.23;66.20
70909;BME280;58554;52.006;5.926;2023-04-25T05:32:29;100383.66;;;6.23;66.60
70909;BME280;58554;52.006;5.926;2023-04-25T05:34:55;100396.69;;;6.25;66.44
70909;BME280;58554;52.006;5.926;2023-04-25T05:37:22;100395.91;;;6.23;66.35
70909;BME280;58554;52.006;5.926;2023-04-25T05:39:51;100399.47;;;6.22;66.57
70909;BME280;58554;52.006;5.926;2023-04-25T05:42:17;100404.78;;;6.20;66.57
70909;BME280;58554;52.006;5.926;2023-04-25T05:44:44;100403.94;;;6.20;66.50
70909;BME280;58554;52.006;5.926;2023-04-25T05:47:11;100397.97;;;6.16;66.66
70909;BME280;58554;52.006;5.926;2023-04-25T05:49:37;100403.31;;;6.15;66.60
70909;BME280;58554;52.006;5.926;2023-04-25T05:52:04;100409.63;;;6.11;66.72
70909;BME280;58554;52.006;5.926;2023-04-25T05:54:30;100416.56;;;6.12;66.84
70909;BME280;58554;52.006;5.926;2023-04-25T05:56:59;100422.66;;;6.12;66.83
70909;BME280;58554;52.006;5.926;2023-04-25T05:59:26;100434.03;;;6.13;67.04
70909;BME280;58554;52.006;5.926;2023-04-25T06:01:52;100436.66;;;6.13;66.97
70909;BME280;58554;52.006;5.926;2023-04-25T06:04:19;100438.34;;;6.14;66.92
70909;BME280;58554;52.006;5.926;2023-04-25T06:06:45;100440.84;;;6.17;67.31
70909;BME280;58554;52.006;5.926;2023-04-25T06:09:12;100438.06;;;6.20;67.23
70909;BME280;58554;52.006;5.926;2023-04-25T06:11:38;100439.56;;;6.25;67.45
70909;BME280;58554;52.006;5.926;2023-04-25T06:14:07;100439.31;;;6.32;67.17
70909;BME280;58554;52.006;5.926;2023-04-25T06:16:34;100442.44;;;6.40;67.31
70909;BME280;58554;52.006;5.926;2023-04-25T06:19:00;100444.69;;;6.47;67.63
70909;BME280;58554;52.006;5.926;2023-04-25T06:21:27;100447.03;;;6.54;67.34
70909;BME280;58554;52.006;5.926;2023-04-25T06:23:53;100452.81;;;6.62;67.10
70909;BME280;58554;52.006;5.926;2023-04-25T06:26:20;100445.47;;;6.68;67.19
70909;BME280;58554;52.006;5.926;2023-04-25T06:28:46;100445.28;;;6.73;67.18
70909;BME280;58554;52.006;5.926;2023-04-25T06:31:15;100436.25;;;6.79;66.77
70909;BME280;58554;52.006;5.926;2023-04-25T06:33:42;100448.13;;;6.87;67.00
70909;BME280;58554;52.006;5.926;2023-04-25T06:36:08;100450.31;;;6.97;67.05
70909;BME280;58554;52.006;5.926;2023-04-25T06:38:34;100450.81;;;7.05;66.83
70909;BME280;58554;52.006;5.926;2023-04-25T06:41:01;100447.81;;;7.13;66.77
70909;BME280;58554;52.006;5.926;2023-04-25T06:43:27;100450.91;;;7.21;66.88
70909;BME280;58554;52.006;5.926;2023-04-25T06:45:54;100447.91;;;7.28;66.83
70909;BME280;58554;52.006;5.926;2023-04-25T06:48:23;100455.38;;;7.38;66.87
70909;BME280;58554;52.006;5.926;2023-04-25T06:50:50;100448.81;;;7.46;66.68
70909;BME280;58554;52.006;5.926;2023-04-25T06:53:16;100457.09;;;7.56;66.27
70909;BME280;58554;52.006;5.926;2023-04-25T06:55:43;100454.88;;;7.66;66.43
70909;BME280;58554;52.006;5.926;2023-04-25T06:58:09;100462.44;;;7.72;65.98
70909;BME280;58554;52.006;5.926;2023-04-25T07:00:36;100468.25;;;7.79;65.90
70909;BME280;58554;52.006;5.926;2023-04-25T07:03:03;100467.94;;;7.85;65.75
70909;BME280;58554;52.006;5.926;2023-04-25T07:05:32;100463.38;;;7.88;65.81
70909;BME280;58554;52.006;5.926;2023-04-25T07:07:58;100475.59;;;7.89;65.65
70909;BME280;58554;52.006;5.926;2023-04-25T07:10:24;100470.50;;;7.86;65.80
70909;BME280;58554;52.006;5.926;2023-04-25T07:12:51;100467.28;;;7.81;65.50
70909;BME280;58554;52.006;5.926;2023-04-25T07:15:17;100483.38;;;7.75;65.72
70909;BME280;58554;52.006;5.926;2023-04-25T07:17:44;100491.34;;;7.74;65.87
70909;BME280;58554;52.006;5.926;2023-04-25T07:20:11;100486.06;;;7.74;66.23
70909;BME280;58554;52.006;5.926;2023-04-25T07:22:40;100478.94;;;7.76;66.46
70909;BME280;58554;52.006;5.926;2023-04-25T07:25:08;100483.75;;;7.85;66.46
70909;BME280;58554;52.006;5.926;2023-04-25T07:27:35;100480.78;;;7.91;66.22
70909;BME280;58554;52.006;5.926;2023-04-25T07:30:02;100489.31;;;7.96;65.95
70909;BME280;58554;52.006;5.926;2023-04-25T07:32:29;100482.25;;;8.14;66.32
70909;BME280;58554;52.006;5.926;2023-04-25T07:34:56;100488.09;;;8.37;66.00
70909;BME280;58554;52.006;5.926;2023-04-25T07:37:22;100479.91;;;8.59;65.51
70909;BME280;58554;52.006;5.926;2023-04-25T07:39:51;100481.72;;;8.74;65.14
70909;BME280;58554;52.006;5.926;2023-04-25T07:42:18;100488.13;;;8.86;64.88
70909;BME280;58554;52.006;5.926;2023-04-25T07:44:44;100484.88;;;8.97;64.43
70909;BME280;58554;52.006;5.926;2023-04-25T07:47:11;100489.97;;;9.00;64.00
70909;BME280;58554;52.006;5.926;2023-04-25T07:49:37;100493.50;;;9.00;63.87
70909;BME280;58554;52.006;5.926;2023-04-25T07:52:05;100492.53;;;9.01;63.89
70909;BME280;58554;52.006;5.926;2023-04-25T07:54:32;100493.03;;;9.08;63.85
70909;BME280;58554;52.006;5.926;2023-04-25T07:57:01;100494.56;;;9.12;63.63
70909;BME280;58554;52.006;5.926;2023-04-25T07:59:27;100502.16;;;9.18;63.45
70909;BME280;58554;52.006;5.926;2023-04-25T08:01:54;100511.31;;;9.27;63.69
70909;BME280;58554;52.006;5.926;2023-04-25T08:04:20;100514.69;;;9.30;63.21
70909;BME280;58554;52.006;5.926;2023-04-25T08:06:47;100518.00;;;9.34;62.93
70909;BME280;58554;52.006;5.926;2023-04-25T08:09:13;100517.56;;;9.26;62.04
70909;BME280;58554;52.006;5.926;2023-04-25T08:11:40;100524.28;;;9.16;61.82
70909;BME280;58554;52.006;5.926;2023-04-25T08:14:09;100524.69;;;9.08;61.97
70909;BME280;58554;52.006;5.926;2023-04-25T08:16:36;100528.34;;;9.05;61.89
70909;BME280;58554;52.006;5.926;2023-04-25T08:19:02;100523.34;;;9.01;61.33
70909;BME280;58554;52.006;5.926;2023-04-25T08:21:29;100526.81;;;9.01;61.70
70909;BME280;58554;52.006;5.926;2023-04-25T08:23:55;100531.19;;;9.02;60.65
70909;BME280;58554;52.006;5.926;2023-04-25T08:26:22;100531.25;;;9.01;60.24
70909;BME280;58554;52.006;5.926;2023-04-25T08:28:48;100534.47;;;9.06;60.41
70909;BME280;58554;52.006;5.926;2023-04-25T08:31:17;100541.91;;;9.15;60.11
70909;BME280;58554;52.006;5.926;2023-04-25T08:33:44;100540.53;;;9.24;60.00
70909;BME280;58554;52.006;5.926;2023-04-25T08:36:10;100536.63;;;9.31;59.80
70909;BME280;58554;52.006;5.926;2023-04-25T08:38:37;100553.84;;;9.38;59.50
70909;BME280;58554;52.006;5.926;2023-04-25T08:41:05;100550.19;;;9.41;59.52
70909;BME280;58554;52.006;5.926;2023-04-25T08:43:34;100559.72;;;9.43;59.57
70909;BME280;58554;52.006;5.926;2023-04-25T08:46:01;100559.63;;;9.45;58.99
70909;BME280;58554;52.006;5.926;2023-04-25T08:48:32;100568.31;;;9.47;58.62
70909;BME280;58554;52.006;5.926;2023-04-25T08:51:01;100568.16;;;9.50;58.58
70909;BME280;58554;52.006;5.926;2023-04-25T08:53:30;100582.84;;;9.54;58.44
70909;BME280;58554;52.006;5.926;2023-04-25T08:55:59;100583.81;;;9.53;58.56
70909;BME280;58554;52.006;5.926;2023-04-25T08:58:27;100574.16;;;9.52;59.06
70909;BME280;58554;52.006;5.926;2023-04-25T09:00:54;100588.06;;;9.56;58.91
70909;BME280;58554;52.006;5.926;2023-04-25T09:03:21;100586.19;;;9.58;59.20
70909;BME280;58554;52.006;5.926;2023-04-25T09:05:51;100588.56;;;9.62;59.18
70909;BME280;58554;52.006;5.926;2023-04-25T09:08:18;100599.72;;;9.67;59.27
70909;BME280;58554;52.006;5.926;2023-04-25T09:10:44;100606.47;;;9.73;59.10
70909;BME280;58554;52.006;5.926;2023-04-25T09:13:12;100601.75;;;9.78;59.11
70909;BME280;58554;52.006;5.926;2023-04-25T09:15:50;100607.53;;;9.85;58.82
70909;BME280;58554;52.006;5.926;2023-04-25T09:18:25;100601.81;;;9.92;58.72
70909;BME280;58554;52.006;5.926;2023-04-25T09:20:57;100612.88;;;9.99;58.63
70909;BME280;58554;52.006;5.926;2023-04-25T09:23:39;100618.78;;;10.04;58.55
70909;BME280;58554;52.006;5.926;2023-04-25T09:26:07;100609.31;;;10.00;57.83
70909;BME280;58554;52.006;5.926;2023-04-25T09:28:34;100622.00;;;9.93;57.96
70909;BME280;58554;52.006;5.926;2023-04-25T09:31:01;100618.59;;;9.91;57.76
70909;BME280;58554;52.006;5.926;2023-04-25T09:33:29;100626.63;;;9.90;57.77
70909;BME280;58554;52.006;5.926;2023-04-25T09:36:05;100626.63;;;9.90;57.80
70909;BME280;58554;52.006;5.926;2023-04-25T09:38:41;100616.63;;;9.95;58.06
70909;BME280;58554;52.006;5.926;2023-04-25T09:41:09;100621.91;;;10.11;57.96
70909;BME280;58554;52.006;5.926;2023-04-25T09:43:37;100619.31;;;10.25;57.50
70909;BME280;58554;52.006;5.926;2023-04-25T09:46:08;100627.72;;;10.32;56.94
70909;BME280;58554;52.006;5.926;2023-04-25T09:48:35;100634.69;;;10.33;56.91
70909;BME280;58554;52.006;5.926;2023-04-25T09:51:10;100624.25;;;10.31;56.34
70909;BME280;58554;52.006;5.926;2023-04-25T09:53:38;100629.69;;;10.28;56.32
70909;BME280;58554;52.006;5.926;2023-04-25T09:56:07;100624.69;;;10.24;55.84
70909;BME280;58554;52.006;5.926;2023-04-25T09:58:36;100633.44;;;10.24;55.54
70909;BME280;58554;52.006;5.926;2023-04-25T10:01:05;100631.66;;;10.25;55.33
70909;BME280;58554;52.006;5.926;2023-04-25T10:03:35;100622.81;;;10.26;54.77
70909;BME280;58554;52.006;5.926;2023-04-25T10:06:04;100620.16;;;10.26;54.75
70909;BME280;58554;52.006;5.926;2023-04-25T10:08:39;100633.59;;;10.37;54.90
70909;BME280;58554;52.006;5.926;2023-04-25T10:11:08;100627.50;;;10.51;54.86
70909;BME280;58554;52.006;5.926;2023-04-25T10:13:35;100636.31;;;10.66;54.62
70909;BME280;58554;52.006;5.926;2023-04-25T10:16:04;100640.09;;;10.76;53.99
70909;BME280;58554;52.006;5.926;2023-04-25T10:18:32;100638.44;;;10.89;54.22
70909;BME280;58554;52.006;5.926;2023-04-25T10:21:00;100647.72;;;10.97;54.04
70909;BME280;58554;52.006;5.926;2023-04-25T10:23:31;100650.75;;;11.05;53.64
70909;BME280;58554;52.006;5.926;2023-04-25T10:25:59;100641.31;;;11.15;53.66
70909;BME280;58554;52.006;5.926;2023-04-25T10:28:26;100643.38;;;11.24;53.46
70909;BME280;58554;52.006;5.926;2023-04-25T10:30:59;100643.56;;;11.21;52.62
70909;BME280;58554;52.006;5.926;2023-04-25T10:33:32;100650.47;;;11.09;52.31
70909;BME280;58554;52.006;5.926;2023-04-25T10:36:09;100699.28;;;10.89;52.41
70909;BME280;58554;52.006;5.926;2023-04-25T10:38:40;100688.25;;;10.67;53.33
70909;BME280;58554;52.006;5.926;2023-04-25T10:41:09;100701.09;;;10.43;53.80
70909;BME280;58554;52.006;5.926;2023-04-25T10:43:38;100689.13;;;10.21;54.42
70909;BME280;58554;52.006;5.926;2023-04-25T10:46:17;100699.72;;;10.05;54.79
70909;BME280;58554;52.006;5.926;2023-04-25T10:48:47;100697.41;;;9.99;55.35
70909;BME280;58554;52.006;5.926;2023-04-25T10:51:20;100690.34;;;10.00;55.48
70909;BME280;58554;52.006;5.926;2023-04-25T10:54:00;100693.50;;;10.06;55.81
70909;BME280;58554;52.006;5.926;2023-04-25T10:56:29;100688.44;;;10.18;55.60
70909;BME280;58554;52.006;5.926;2023-04-25T10:59:10;100698.91;;;10.35;55.52
70909;BME280;58554;52.006;5.926;2023-04-25T11:01:39;100692.06;;;10.47;55.55
70909;BME280;58554;52.006;5.926;2023-04-25T11:04:19;100697.31;;;10.63;55.17
70909;BME280;58554;52.006;5.926;2023-04-25T11:07:02;100689.59;;;10.74;54.92
70909;BME280;58554;52.006;5.926;2023-04-25T11:09:40;100697.94;;;10.82;55.10
70909;BME280;58554;52.006;5.926;2023-04-25T11:12:08;100701.31;;;10.84;54.81
70909;BME280;58554;52.006;5.926;2023-04-25T11:14:36;100692.56;;;10.84;54.49
70909;BME280;58554;52.006;5.926;2023-04-25T11:17:03;100693.38;;;10.84;54.59
70909;BME280;58554;52.006;5.926;2023-04-25T11:19:30;100685.25;;;10.87;54.67
70909;BME280;58554;52.006;5.926;2023-04-25T11:21:57;100679.22;;;10.85;54.07
70909;BME280;58554;52.006;5.926;2023-04-25T11:24:26;100682.25;;;10.79;54.36
70909;BME280;58554;52.006;5.926;2023-04-25T11:26:57;100684.91;;;10.79;54.14
70909;BME280;58554;52.006;5.926;2023-04-25T11:29:26;100676.84;;;10.81;53.69
70909;BME280;58554;52.006;5.926;2023-04-25T11:31:54;100672.31;;;10.83;53.58
70909;BME280;58554;52.006;5.926;2023-04-25T11:34:21;100674.03;;;10.84;53.32
70909;BME280;58554;52.006;5.926;2023-04-25T11:36:47;100669.59;;;10.84;53.06
70909;BME280;58554;52.006;5.926;2023-04-25T11:39:14;100670.00;;;10.92;52.59
70909;BME280;58554;52.006;5.926;2023-04-25T11:41:41;100674.94;;;10.99;51.81
70909;BME280;58554;52.006;5.926;2023-04-25T11:44:11;100684.47;;;11.01;51.77
70909;BME280;58554;52.006;5.926;2023-04-25T11:46:38;100682.66;;;11.02;51.16
70909;BME280;58554;52.006;5.926;2023-04-25T11:49:04;100698.81;;;10.97;50.91
70909;BME280;58554;52.006;5.926;2023-04-25T11:51:38;100690.56;;;10.87;50.60
70909;BME280;58554;52.006;5.926;2023-04-25T11:54:05;100691.88;;;10.80;51.04
70909;BME280;58554;52.006;5.926;2023-04-25T11:56:31;100685.66;;;10.81;51.03
70909;BME280;58554;52.006;5.926;2023-04-25T11:58:59;100679.31;;;10.84;50.94
70909;BME280;58554;52.006;5.926;2023-04-25T12:01:32;100691.19;;;10.92;51.03
70909;BME280;58554;52.006;5.926;2023-04-25T12:04:10;100693.84;;;11.07;51.08
70909;BME280;58554;52.006;5.926;2023-04-25T12:06:38;100683.81;;;11.26;51.34
70909;BME280;58554;52.006;5.926;2023-04-25T12:09:06;100687.78;;;11.48;50.98
70909;BME280;58554;52.006;5.926;2023-04-25T12:11:40;100697.59;;;11.60;50.57
70909;BME280;58554;52.006;5.926;2023-04-25T12:14:07;100705.94;;;11.54;50.54
70909;BME280;58554;52.006;5.926;2023-04-25T12:16:43;100719.00;;;11.43;50.49
70909;BME280;58554;52.006;5.926;2023-04-25T12:19:13;100742.81;;;11.28;51.05
70909;BME280;58554;52.006;5.926;2023-04-25T12:21:40;100738.47;;;11.13;51.42
70909;BME280;58554;52.006;5.926;2023-04-25T12:24:12;100737.47;;;11.00;51.91
70909;BME280;58554;52.006;5.926;2023-04-25T12:26:49;100731.09;;;10.88;51.51
70909;BME280;58554;52.006;5.926;2023-04-25T12:29:19;100736.91;;;10.79;52.06
70909;BME280;58554;52.006;5.926;2023-04-25T12:31:51;100736.28;;;10.75;51.89
70909;BME280;58554;52.006;5.926;2023-04-25T12:34:18;100747.41;;;10.80;51.98
70909;BME280;58554;52.006;5.926;2023-04-25T12:36:46;100742.38;;;10.91;51.59
70909;BME280;58554;52.006;5.926;2023-04-25T12:39:16;100748.94;;;11.00;51.77
70909;BME280;58554;52.006;5.926;2023-04-25T12:41:43;100754.78;;;11.05;51.11
70909;BME280;58554;52.006;5.926;2023-04-25T12:44:10;100753.19;;;11.03;51.05
70909;BME280;58554;52.006;5.926;2023-04-25T12:46:37;100755.91;;;11.01;51.23
70909;BME280;58554;52.006;5.926;2023-04-25T12:49:07;100752.50;;;10.99;51.27
70909;BME280;58554;52.006;5.926;2023-04-25T12:51:35;100745.59;;;10.97;51.15
70909;BME280;58554;52.006;5.926;2023-04-25T12:54:03;100742.75;;;11.00;51.41
70909;BME280;58554;52.006;5.926;2023-04-25T12:56:31;100737.09;;;11.06;51.45
70909;BME280;58554;52.006;5.926;2023-04-25T12:58:58;100739.09;;;11.17;51.95
70909;BME280;58554;52.006;5.926;2023-04-25T13:01:25;100734.59;;;11.33;51.86